createdAt,value
2019-05-30T00:02:02.634Z,95.20
2019-05-30T00:08:47.875Z,95.30
2019-05-30T00:15:32.835Z,95.60
2019-05-30T00:22:17.931Z,95.90
2019-05-30T00:29:03.037Z,96.20
2019-05-30T00:35:48.238Z,97.10
2019-05-30T00:42:33.194Z,97.40
2019-05-30T00:49:18.068Z,97.50
2019-05-30T00:56:03.147Z,97.40
2019-05-30T01:02:48.532Z,97.20
2019-05-30T01:09:51.871Z,97.40
2019-05-30T01:16:37.208Z,97.40
2019-05-30T01:23:22.244Z,97.40
2019-05-30T01:30:08.981Z,97.20
2019-05-30T01:36:53.922Z,97.20
2019-05-30T01:43:39.268Z,97.30
2019-05-30T01:50:24.880Z,97.40
2019-05-30T01:57:09.839Z,97.40
2019-05-30T02:03:54.882Z,97.40
2019-05-30T02:10:39.830Z,97.20
2019-05-30T02:17:24.984Z,97.00
2019-05-30T02:24:12.015Z,96.90
2019-05-30T02:30:57.018Z,96.90
2019-05-30T02:37:42.055Z,96.80
2019-05-30T02:44:27.023Z,96.90
2019-05-30T02:51:12.644Z,96.90
2019-05-30T02:57:58.043Z,97.10
2019-05-30T03:04:43.129Z,97.20
2019-05-30T03:11:28.519Z,97.30
2019-05-30T03:18:14.949Z,97.30
2019-05-30T03:25:03.131Z,97.60
2019-05-30T03:31:49.167Z,97.70
2019-05-30T03:38:34.273Z,97.60
2019-05-30T03:45:21.849Z,97.70
2019-05-30T03:52:08.161Z,97.60
2019-05-30T03:58:56.784Z,97.50
2019-05-30T04:05:54.369Z,97.20
2019-05-30T04:13:14.549Z,96.70
2019-05-30T04:19:59.298Z,96.40
2019-05-30T04:26:44.244Z,95.70
2019-05-30T04:33:32.954Z,94.70
2019-05-30T04:40:17.998Z,94.40
2019-05-30T04:47:04.058Z,94.00
2019-05-30T04:53:48.958Z,93.50
2019-05-30T05:00:34.141Z,92.60
2019-05-30T05:07:19.882Z,77.00
2019-05-30T05:14:04.881Z,58.90
2019-05-30T05:20:49.950Z,47.20
2019-05-30T05:27:35.260Z,43.10
2019-05-30T05:34:20.677Z,37.90
2019-05-30T05:41:06.020Z,35.90
2019-05-30T05:47:51.107Z,36.40
2019-05-30T05:54:36.124Z,37.20
2019-05-30T06:01:21.476Z,35.80
2019-05-30T06:08:07.628Z,31.90
2019-05-30T06:14:52.803Z,30.90
2019-05-30T06:21:51.035Z,33.10
2019-05-30T06:28:24.693Z,31.10
2019-05-30T06:35:10.265Z,32.10
2019-05-30T06:41:55.418Z,33.30
2019-05-30T06:48:40.377Z,33.70
2019-05-30T06:55:25.334Z,30.80
2019-05-30T07:02:11.441Z,28.20
2019-05-30T07:08:56.501Z,28.20
2019-05-30T07:15:41.532Z,28.10
2019-05-30T07:22:27.632Z,29.30
2019-05-30T07:29:12.649Z,27.90
2019-05-30T07:35:57.624Z,27.10
2019-05-30T07:42:43.451Z,25.80
2019-05-30T07:49:28.391Z,26.30
2019-05-30T07:56:13.341Z,25.50
2019-05-30T08:02:58.287Z,24.90
2019-05-30T08:09:43.259Z,24.40
2019-05-30T08:16:29.152Z,23.60
2019-05-30T08:23:14.240Z,22.90
2019-05-30T08:29:59.299Z,23.00
2019-05-30T08:36:44.364Z,22.70
2019-05-30T08:43:29.601Z,21.70
2019-05-30T08:50:14.840Z,20.30
2019-05-30T08:56:59.707Z,21.10
2019-05-30T09:03:44.670Z,22.60
2019-05-30T09:10:29.675Z,22.30
2019-05-30T09:17:14.732Z,22.90
2019-05-30T09:24:01.393Z,23.10
2019-05-30T09:30:46.680Z,21.80
2019-05-30T09:37:32.859Z,23.20
2019-05-30T09:44:17.889Z,22.10
2019-05-30T09:51:02.903Z,22.50
2019-05-30T09:57:48.104Z,22.60
2019-05-30T10:04:33.012Z,23.30
2019-05-30T10:11:18.213Z,24.20
2019-05-30T10:18:03.211Z,24.10
2019-05-30T10:24:49.104Z,24.80
2019-05-30T10:31:34.382Z,25.10
2019-05-30T10:38:20.723Z,23.30
2019-05-30T10:45:08.697Z,22.60
2019-05-30T10:51:57.519Z,23.60
2019-05-30T10:58:40.301Z,26.00
2019-05-30T11:05:25.666Z,28.20
2019-05-30T11:12:11.009Z,29.50
2019-05-30T11:18:56.206Z,31.50
2019-05-30T11:25:42.227Z,31.80
2019-05-30T11:32:27.289Z,31.60
2019-05-30T11:39:13.051Z,30.10
2019-05-30T11:45:57.997Z,30.00
2019-05-30T11:52:43.608Z,30.80
2019-05-30T11:59:28.613Z,29.30
2019-05-30T12:06:14.220Z,30.30
2019-05-30T12:13:01.627Z,30.60
2019-05-30T12:19:47.584Z,31.20
2019-05-30T12:26:33.935Z,31.40
2019-05-30T12:33:19.138Z,29.90
2019-05-30T12:40:07.521Z,29.90
2019-05-30T12:46:53.374Z,30.00
2019-05-30T12:53:38.514Z,29.80
2019-05-30T13:00:29.823Z,29.50
2019-05-30T13:07:14.734Z,29.70
2019-05-30T13:14:00.672Z,28.80
2019-05-30T13:20:45.852Z,29.30
2019-05-30T13:27:30.881Z,28.90
2019-05-30T13:34:15.832Z,29.20
2019-05-30T13:41:01.923Z,28.90
2019-05-30T13:47:48.348Z,29.20
2019-05-30T13:54:35.268Z,29.10
2019-05-30T14:01:20.205Z,28.90
2019-05-30T14:08:09.235Z,28.50
2019-05-30T14:14:52.058Z,29.80
2019-05-30T14:21:37.136Z,29.00
2019-05-30T14:28:22.612Z,29.00
2019-05-30T14:35:08.578Z,29.30
2019-05-30T14:41:53.645Z,29.30
2019-05-30T14:48:38.923Z,28.90
2019-05-30T14:55:23.976Z,28.80
2019-05-30T15:02:09.182Z,30.00
2019-05-30T15:08:54.673Z,31.60
2019-05-30T15:15:39.739Z,33.20
2019-05-30T15:22:24.680Z,32.20
2019-05-30T15:29:10.055Z,32.20
2019-05-30T15:35:56.447Z,30.40
2019-05-30T15:42:41.438Z,30.50
2019-05-30T15:49:26.473Z,30.20
2019-05-30T15:56:11.709Z,30.40
2019-05-30T16:02:56.784Z,30.70
2019-05-30T16:09:47.185Z,31.00
2019-05-30T16:16:39.505Z,31.30
2019-05-30T16:23:16.322Z,30.70
2019-05-30T16:30:02.732Z,30.20
2019-05-30T16:36:49.527Z,30.60
2019-05-30T16:43:34.536Z,30.90
2019-05-30T16:50:23.352Z,30.60
2019-05-30T16:57:08.386Z,30.20
2019-05-30T17:03:54.491Z,30.50
2019-05-30T17:10:39.515Z,31.20
2019-05-30T17:17:24.470Z,32.20
2019-05-30T17:24:09.432Z,34.00
2019-05-30T17:30:54.607Z,34.20
2019-05-30T17:37:39.686Z,35.00
2019-05-30T17:52:28.355Z,36.10
2019-05-30T17:59:14.406Z,36.00
2019-05-30T18:05:59.425Z,36.10
2019-05-30T18:13:20.989Z,36.60
2019-05-30T18:28:09.068Z,38.70
2019-05-30T18:34:57.225Z,39.60
2019-05-30T18:41:40.613Z,40.60
2019-05-30T18:48:25.705Z,41.70
2019-05-30T18:55:11.416Z,40.80
2019-05-30T19:01:56.358Z,41.10
2019-05-30T19:08:41.316Z,41.40
2019-05-30T19:15:29.314Z,42.20
2019-05-30T19:22:13.068Z,42.90
2019-05-30T19:28:57.962Z,44.30
2019-05-30T19:35:43.940Z,44.60
2019-05-30T19:50:32.538Z,45.50
2019-05-30T19:57:18.090Z,46.90
2019-05-30T20:04:03.091Z,47.70
2019-05-30T20:10:47.946Z,49.00
2019-05-30T20:17:33.380Z,50.70
2019-05-30T20:24:18.342Z,51.80
2019-05-30T20:31:03.207Z,53.40
2019-05-30T20:37:48.218Z,54.70
2019-05-30T20:44:33.140Z,55.80
2019-05-30T20:51:21.243Z,56.20
2019-05-30T20:58:04.799Z,57.80
2019-05-30T21:04:49.802Z,58.50
2019-05-30T21:11:36.094Z,60.00
2019-05-30T21:18:21.192Z,60.40
2019-05-30T21:25:07.852Z,60.80
2019-05-30T21:31:52.834Z,61.20
2019-05-30T21:38:37.893Z,61.30
2019-05-30T21:45:23.115Z,61.40
2019-05-30T21:52:07.971Z,62.20
2019-05-30T21:58:52.948Z,62.50
2019-05-30T22:05:37.888Z,62.80
2019-05-30T22:12:22.883Z,63.20
2019-05-30T22:19:07.772Z,63.60
2019-05-30T22:25:53.039Z,63.60
2019-05-30T22:32:38.603Z,63.90
2019-05-30T22:39:23.587Z,64.90
2019-05-30T22:46:08.596Z,65.10
2019-05-30T22:52:53.518Z,65.10
2019-05-30T23:15:30.520Z,64.50
2019-05-30T23:22:15.375Z,64.70
2019-05-30T23:29:00.599Z,65.40
2019-05-30T23:35:45.459Z,64.90
2019-05-30T23:50:33.991Z,65.40
2019-05-30T23:57:18.850Z,66.20
